This is the latest recevied weather packets stored in our database for station/object K7SFN. If no packets are shown the sender has not sent any weather packets the latest 10 day(s).
| Time | Temp. | Humidity | Pressure | Rain* | Wind** | Luminosity | Snow |
|---|---|---|---|---|---|---|---|
| 1777627204 | 5.56° C | 56% | 1018.6 hPa | 0 mm | - | - | - |
| 1777624204 | 6.67° C | 50% | 1018.7 hPa | 0 mm | - | - | - |
| 1777623304 | 6.67° C | 50% | 1018.8 hPa | 0 mm | - | - | - |
| 1777616704 | 10° C | 44% | 1018.3 hPa | 0 mm | - | - | - |
| 1777611904 | 12.22° C | 36% | 1017.8 hPa | 0 mm | - | - | - |
| 1777610405 | 15° C | 30% | 1017.6 hPa | 0 mm | - | - | - |
| 1777608904 | 15.56° C | 29% | 1017.4 hPa | 0 mm | - | - | - |
| 1777607104 | 15° C | 30% | 1016.9 hPa | 0 mm | - | - | - |
| 1777606505 | 15.56° C | 30% | 1016.8 hPa | 0 mm | - | - | - |
| 1777605904 | 16.11° C | 30% | 1016.7 hPa | 0 mm | - | - | - |
| 1777602005 | 18.33° C | 23% | 1015.7 hPa | 0 mm | - | - | - |
| 1777600205 | 18.89° C | 22% | 1015.7 hPa | 0 mm | - | - | - |
| 1777599905 | 18.89° C | 22% | 1015.6 hPa | 0 mm | - | - | - |
| 1777599004 | 19.44° C | 21% | 1015.6 hPa | 0 mm | - | - | - |
| 1777598704 | 19.44° C | 20% | 1015.6 hPa | 0 mm | - | - | - |
| 1777597504 | 20° C | 18% | 1015.6 hPa | 0 mm | - | - | - |
| 1777596904 | 20.56° C | 18% | 1015.6 hPa | 0 mm | - | - | - |
| 1777593904 | 20° C | 21% | 1015.7 hPa | 0 mm | - | - | - |
| 1777593005 | 21.11° C | 20% | 1015.7 hPa | 0 mm | - | - | - |
| 1777592105 | 21.67° C | 18% | 1015.8 hPa | 0 mm | - | - | - |
| 1777589704 | 22.22° C | 19% | 1016.1 hPa | 0 mm | - | - | - |
| 1777588504 | 21.67° C | 19% | 1016.4 hPa | 0 mm | - | - | - |
| 1777588204 | 21.67° C | 19% | 1016.6 hPa | 0 mm | - | - | - |
| 1777578604 | 20° C | 22% | 1018.2 hPa | 0 mm | - | - | - |
| 1777575304 | 20° C | 24% | 1018.8 hPa | 0 mm | - | - | - |
* Rain latest hour (hover to see other rain measurements)
** Current wind speed in m/s (hover to see current wind gust speed)